createdAt,value
2017-10-18T00:00:58.432Z,982.35
2017-10-18T00:01:58.459Z,982.34
2017-10-18T00:02:58.496Z,982.37
2017-10-18T00:03:58.532Z,982.32
2017-10-18T00:04:58.567Z,982.35
2017-10-18T00:05:58.606Z,982.44
2017-10-18T00:06:58.639Z,982.35
2017-10-18T00:07:58.673Z,982.37
2017-10-18T00:08:58.710Z,982.31
2017-10-18T00:09:58.751Z,982.35
2017-10-18T00:10:58.781Z,982.34
2017-10-18T00:11:58.818Z,982.36
2017-10-18T00:12:58.859Z,982.31
2017-10-18T00:13:58.900Z,982.31
2017-10-18T00:14:58.927Z,982.32
2017-10-18T00:15:58.968Z,982.27
2017-10-18T00:16:58.994Z,982.25
2017-10-18T00:17:59.041Z,982.28
2017-10-18T00:18:59.066Z,982.34
2017-10-18T00:19:59.106Z,982.29
2017-10-18T00:20:59.137Z,982.26
2017-10-18T00:21:59.179Z,982.28
2017-10-18T00:22:59.209Z,982.26
2017-10-18T00:23:59.243Z,982.25
2017-10-18T00:24:59.285Z,982.22
2017-10-18T00:25:59.315Z,982.25
2017-10-18T00:26:59.351Z,982.25
2017-10-18T00:27:59.388Z,982.21
2017-10-18T00:28:59.422Z,982.21
2017-10-18T00:29:59.458Z,982.17
2017-10-18T00:30:59.494Z,982.23
2017-10-18T00:31:59.542Z,982.21
2017-10-18T00:32:59.568Z,982.22
2017-10-18T00:33:59.604Z,982.19
2017-10-18T00:34:59.637Z,982.24
2017-10-18T00:35:59.675Z,982.25
2017-10-18T00:36:59.709Z,982.22
2017-10-18T00:37:59.754Z,982.22
2017-10-18T00:38:59.785Z,982.16
2017-10-18T00:39:59.812Z,982.17
2017-10-18T00:40:59.847Z,982.18
2017-10-18T00:41:59.883Z,982.14
2017-10-18T00:42:59.920Z,982.15
2017-10-18T00:43:59.956Z,982.14
2017-10-18T00:44:59.995Z,982.16
2017-10-18T00:46:00.028Z,982.12
2017-10-18T00:47:00.063Z,982.17
2017-10-18T00:48:00.102Z,982.14
2017-10-18T00:49:00.131Z,982.13
2017-10-18T00:50:00.169Z,982.15
2017-10-18T00:51:00.209Z,982.06
2017-10-18T00:52:00.236Z,982.14
2017-10-18T00:53:00.274Z,982.11
2017-10-18T00:54:00.313Z,982.12
2017-10-18T00:55:00.348Z,982.05
2017-10-18T00:56:00.378Z,982.10
2017-10-18T00:57:00.415Z,982.06
2017-10-18T00:58:00.451Z,982.07
2017-10-18T00:59:00.485Z,982.05
2017-10-18T01:00:00.520Z,982.05
2017-10-18T01:01:00.557Z,982.06
2017-10-18T01:02:00.590Z,982.01
2017-10-18T01:03:00.632Z,982.05
2017-10-18T01:04:00.666Z,982.02
2017-10-18T01:05:00.696Z,982.05
2017-10-18T01:06:00.735Z,982.02
2017-10-18T01:07:00.790Z,981.97
2017-10-18T01:08:00.802Z,981.98
2017-10-18T01:09:00.845Z,981.98
2017-10-18T01:10:00.874Z,982.01
2017-10-18T01:11:00.917Z,981.96
2017-10-18T01:12:00.948Z,981.98
2017-10-18T01:13:00.978Z,981.96
2017-10-18T01:14:01.018Z,981.93
2017-10-18T01:15:01.051Z,981.95
2017-10-18T01:16:01.087Z,981.98
2017-10-18T01:17:01.122Z,981.95
2017-10-18T01:18:01.159Z,981.92
2017-10-18T01:19:01.193Z,981.97
2017-10-18T01:20:01.228Z,981.95
2017-10-18T01:21:01.262Z,981.90
2017-10-18T01:22:01.295Z,981.91
2017-10-18T01:23:01.338Z,981.91
2017-10-18T01:24:01.368Z,981.90
2017-10-18T01:25:01.404Z,981.83
2017-10-18T01:26:01.437Z,981.89
2017-10-18T01:27:01.476Z,981.92
2017-10-18T01:28:01.507Z,981.89
2017-10-18T01:29:01.545Z,981.89
2017-10-18T01:30:01.592Z,981.89
2017-10-18T01:31:01.615Z,981.89
2017-10-18T01:32:01.647Z,981.89
2017-10-18T01:33:01.683Z,981.87
2017-10-18T01:34:01.719Z,981.90
2017-10-18T01:35:01.754Z,981.84
2017-10-18T01:36:01.792Z,981.87
2017-10-18T01:37:01.826Z,981.86
2017-10-18T01:38:01.859Z,981.83
2017-10-18T01:39:01.898Z,981.82
2017-10-18T01:40:01.935Z,981.77
2017-10-18T01:41:01.968Z,981.81
2017-10-18T01:42:02.004Z,981.79
2017-10-18T01:43:02.036Z,981.79
2017-10-18T01:44:02.068Z,981.81
2017-10-18T01:45:02.107Z,981.79
2017-10-18T01:46:02.147Z,981.78
2017-10-18T01:47:02.180Z,981.78
2017-10-18T01:48:02.214Z,981.77
2017-10-18T01:49:02.246Z,981.74
2017-10-18T01:50:02.284Z,981.71
2017-10-18T01:51:02.317Z,981.76
2017-10-18T01:52:02.349Z,981.72
2017-10-18T01:53:02.385Z,981.76
2017-10-18T01:54:02.424Z,981.72
2017-10-18T01:55:02.457Z,981.72
2017-10-18T01:56:02.489Z,981.74
2017-10-18T01:57:02.533Z,981.75
2017-10-18T01:58:02.563Z,981.76
2017-10-18T01:59:02.599Z,981.73
2017-10-18T02:00:02.636Z,981.75
2017-10-18T02:01:02.666Z,981.74
2017-10-18T02:02:02.700Z,981.72
2017-10-18T02:03:02.739Z,981.68
2017-10-18T02:04:02.771Z,981.70
2017-10-18T02:05:02.814Z,981.65
2017-10-18T02:06:02.841Z,981.65
2017-10-18T02:07:02.882Z,981.64
2017-10-18T02:08:02.910Z,981.63
2017-10-18T02:09:02.946Z,981.61
2017-10-18T02:10:02.986Z,981.62
2017-10-18T02:11:03.017Z,981.59
2017-10-18T02:12:03.052Z,981.56
2017-10-18T02:13:03.093Z,981.55
2017-10-18T02:14:03.125Z,981.55
2017-10-18T02:15:03.160Z,981.55
2017-10-18T02:16:03.190Z,981.61
2017-10-18T02:17:03.231Z,981.59
2017-10-18T02:18:03.260Z,981.55
2017-10-18T02:19:03.295Z,981.58
2017-10-18T02:20:03.328Z,981.54
2017-10-18T02:21:03.365Z,981.52
2017-10-18T02:22:03.402Z,981.56
2017-10-18T02:23:03.438Z,981.48
2017-10-18T02:24:03.466Z,981.51
2017-10-18T02:25:03.505Z,981.52
2017-10-18T02:26:03.537Z,981.55
2017-10-18T02:27:03.573Z,981.51
2017-10-18T02:28:03.626Z,981.51
2017-10-18T02:29:03.643Z,981.51
2017-10-18T02:30:03.691Z,981.54
2017-10-18T02:31:03.713Z,981.49
2017-10-18T02:32:03.747Z,981.54
2017-10-18T02:33:03.781Z,981.50
2017-10-18T02:34:03.818Z,981.48
2017-10-18T02:35:03.851Z,981.49
2017-10-18T02:36:03.891Z,981.48
2017-10-18T02:37:03.921Z,981.48
2017-10-18T02:38:03.954Z,981.51
2017-10-18T02:39:04.000Z,981.47
2017-10-18T02:40:04.025Z,981.47
2017-10-18T02:41:04.060Z,981.46
2017-10-18T02:42:04.095Z,981.45
2017-10-18T02:43:04.131Z,981.44
2017-10-18T02:44:04.168Z,981.45
2017-10-18T02:45:04.199Z,981.41
2017-10-18T02:46:04.235Z,981.41
2017-10-18T02:47:04.270Z,981.43
2017-10-18T02:48:04.302Z,981.41
2017-10-18T02:49:04.336Z,981.44
2017-10-18T02:50:04.377Z,981.44
2017-10-18T02:51:04.414Z,981.46
2017-10-18T02:52:04.440Z,981.46
2017-10-18T02:53:04.478Z,981.46
2017-10-18T02:54:04.516Z,981.47
2017-10-18T02:55:04.555Z,981.46
2017-10-18T02:56:04.581Z,981.48
2017-10-18T02:57:04.620Z,981.43
2017-10-18T02:58:04.650Z,981.42
2017-10-18T02:59:04.688Z,981.45
2017-10-18T03:00:04.716Z,981.47
2017-10-18T03:01:04.757Z,981.48
2017-10-18T03:02:04.794Z,981.43
2017-10-18T03:03:04.824Z,981.47
2017-10-18T03:04:04.854Z,981.50
2017-10-18T03:05:04.889Z,981.50
2017-10-18T03:06:04.929Z,981.52
2017-10-18T03:07:04.959Z,981.48
2017-10-18T03:08:04.995Z,981.50
2017-10-18T03:09:05.030Z,981.55
2017-10-18T03:10:05.068Z,981.55
2017-10-18T03:11:05.101Z,981.49
2017-10-18T03:12:05.141Z,981.50
2017-10-18T03:13:05.174Z,981.47
2017-10-18T03:14:05.204Z,981.46
2017-10-18T03:15:05.238Z,981.45
2017-10-18T03:16:05.271Z,981.49
2017-10-18T03:17:05.305Z,981.44
2017-10-18T03:18:05.340Z,981.44
2017-10-18T03:19:05.383Z,981.46
2017-10-18T03:20:05.434Z,981.44
2017-10-18T03:21:05.452Z,981.47
2017-10-18T03:22:05.479Z,981.45
2017-10-18T03:23:05.520Z,981.50
2017-10-18T03:24:05.554Z,981.48
2017-10-18T03:25:05.593Z,981.46
2017-10-18T03:26:05.618Z,981.44
2017-10-18T03:27:05.656Z,981.48
2017-10-18T03:28:05.689Z,981.43
2017-10-18T03:29:05.730Z,981.46
2017-10-18T03:30:05.757Z,981.41
2017-10-18T03:31:05.790Z,981.44
2017-10-18T03:32:05.830Z,981.40
2017-10-18T03:33:05.858Z,981.37
2017-10-18T03:34:05.904Z,981.39
2017-10-18T03:35:05.930Z,981.39
2017-10-18T03:36:05.965Z,981.41
2017-10-18T03:37:05.997Z,981.33
2017-10-18T03:38:06.031Z,981.32
2017-10-18T03:39:06.064Z,981.33
2017-10-18T03:40:06.102Z,981.31
2017-10-18T03:41:06.133Z,981.31
2017-10-18T03:42:06.169Z,981.26
2017-10-18T03:43:06.205Z,981.26
2017-10-18T03:44:06.237Z,981.27
2017-10-18T03:45:06.276Z,981.26
2017-10-18T03:46:06.313Z,981.24
2017-10-18T03:47:06.354Z,981.26
2017-10-18T03:48:06.373Z,981.29
2017-10-18T03:49:06.414Z,981.28
2017-10-18T03:50:06.444Z,981.29
2017-10-18T03:51:06.476Z,981.21
2017-10-18T03:52:06.523Z,981.23
2017-10-18T03:53:06.554Z,981.21
2017-10-18T03:54:06.579Z,981.19
2017-10-18T03:55:06.619Z,981.25
2017-10-18T03:56:06.652Z,981.26
2017-10-18T03:57:06.684Z,981.24
2017-10-18T03:58:06.717Z,981.26
2017-10-18T03:59:06.757Z,981.22
2017-10-18T04:00:06.791Z,981.22
2017-10-18T04:01:06.823Z,981.19
2017-10-18T04:02:06.851Z,981.24
2017-10-18T04:03:06.886Z,981.20
2017-10-18T04:04:06.923Z,981.20
2017-10-18T04:05:06.956Z,981.18
2017-10-18T04:06:07.019Z,981.24
2017-10-18T04:07:07.038Z,981.20
2017-10-18T04:08:07.059Z,981.16
2017-10-18T04:09:07.093Z,981.19
2017-10-18T04:10:07.128Z,981.17
2017-10-18T04:11:07.165Z,981.16
2017-10-18T04:12:07.200Z,981.17
2017-10-18T04:13:07.233Z,981.17
2017-10-18T04:14:07.263Z,981.17
2017-10-18T04:15:07.298Z,981.13
2017-10-18T04:16:07.331Z,981.18
2017-10-18T04:17:07.368Z,981.10
2017-10-18T04:18:07.411Z,981.12
2017-10-18T04:19:07.435Z,981.12
2017-10-18T04:20:07.474Z,981.10
2017-10-18T04:21:07.503Z,981.05
2017-10-18T04:22:07.544Z,981.02
2017-10-18T04:23:07.580Z,980.98
2017-10-18T04:24:07.608Z,981.03
2017-10-18T04:25:07.641Z,980.99
2017-10-18T04:26:07.674Z,980.96
2017-10-18T04:27:07.712Z,980.96
2017-10-18T04:28:07.741Z,980.94
2017-10-18T04:29:07.799Z,980.96
2017-10-18T04:30:07.812Z,980.97
2017-10-18T04:31:07.866Z,980.97
2017-10-18T04:32:07.880Z,981.02
2017-10-18T04:33:07.917Z,980.99
2017-10-18T04:34:07.950Z,980.99
2017-10-18T04:35:07.981Z,980.98
2017-10-18T04:36:08.020Z,981.01
2017-10-18T04:37:08.052Z,980.86
2017-10-18T04:38:08.085Z,980.84
2017-10-18T04:39:08.119Z,980.87
2017-10-18T04:40:08.153Z,980.84
2017-10-18T04:41:08.198Z,980.83
2017-10-18T04:42:08.222Z,980.81
2017-10-18T04:43:08.257Z,980.83
2017-10-18T04:44:08.294Z,980.82
2017-10-18T04:45:08.325Z,980.77
2017-10-18T04:46:08.358Z,980.74
2017-10-18T04:47:08.396Z,980.70
2017-10-18T04:48:08.430Z,980.71
2017-10-18T04:49:08.462Z,980.73
2017-10-18T04:50:08.495Z,980.70
2017-10-18T04:51:08.531Z,980.70
2017-10-18T04:52:08.570Z,980.72
2017-10-18T04:53:08.597Z,980.77
2017-10-18T04:54:08.634Z,980.75
2017-10-18T04:55:08.666Z,980.68
2017-10-18T04:56:08.700Z,980.67
2017-10-18T04:57:08.741Z,980.70
2017-10-18T04:58:08.768Z,980.67
2017-10-18T04:59:08.808Z,980.60
2017-10-18T05:00:08.840Z,980.60
2017-10-18T05:01:08.894Z,980.63
2017-10-18T05:02:08.905Z,980.58
2017-10-18T05:03:08.939Z,980.63
2017-10-18T05:04:08.978Z,980.60
2017-10-18T05:05:09.012Z,980.59
2017-10-18T05:06:09.045Z,980.57
2017-10-18T05:07:09.128Z,980.55
2017-10-18T05:08:09.109Z,980.58
2017-10-18T05:09:09.146Z,980.56
2017-10-18T05:10:09.182Z,980.57
2017-10-18T05:11:09.222Z,980.57
2017-10-18T05:12:09.249Z,980.58
2017-10-18T05:13:09.289Z,980.61
2017-10-18T05:14:09.321Z,980.55
2017-10-18T05:15:09.351Z,980.51
2017-10-18T05:16:09.387Z,980.53
2017-10-18T05:17:09.417Z,980.51
2017-10-18T05:18:09.463Z,980.49
2017-10-18T05:19:09.491Z,980.46
2017-10-18T05:20:09.526Z,980.48
2017-10-18T05:21:09.569Z,980.45
2017-10-18T05:22:09.600Z,980.42
2017-10-18T05:23:09.623Z,980.47
2017-10-18T05:24:09.658Z,980.49
2017-10-18T05:25:09.693Z,980.46
2017-10-18T05:26:09.728Z,980.47
2017-10-18T05:27:09.760Z,980.48
2017-10-18T05:28:09.796Z,980.50
2017-10-18T05:29:09.833Z,980.47
2017-10-18T05:30:09.897Z,980.45
2017-10-18T05:31:09.898Z,980.44
2017-10-18T05:32:09.944Z,980.46
2017-10-18T05:33:09.964Z,980.42
2017-10-18T05:34:10.013Z,980.44
2017-10-18T05:35:10.049Z,980.42
2017-10-18T05:36:10.122Z,980.41
2017-10-18T05:37:10.146Z,980.42
2017-10-18T05:38:10.155Z,980.41
2017-10-18T05:39:10.173Z,980.39
2017-10-18T05:40:10.291Z,980.38
2017-10-18T05:41:10.241Z,980.35
2017-10-18T05:42:10.278Z,980.40
2017-10-18T05:43:10.334Z,980.39
2017-10-18T05:44:10.340Z,980.38
2017-10-18T05:45:10.373Z,980.37
2017-10-18T05:46:10.464Z,980.32
2017-10-18T05:47:10.612Z,980.33
2017-10-18T05:48:10.477Z,980.36
2017-10-18T05:49:10.519Z,980.35
2017-10-18T05:50:10.552Z,980.42
2017-10-18T05:51:10.584Z,980.40
2017-10-18T05:52:10.613Z,980.42
2017-10-18T05:53:10.652Z,980.33
2017-10-18T05:54:10.682Z,980.39
2017-10-18T05:55:10.726Z,980.40
2017-10-18T05:56:10.760Z,980.39
2017-10-18T05:57:10.795Z,980.46
2017-10-18T05:58:10.900Z,980.43
2017-10-18T05:59:10.870Z,980.40
2017-10-18T06:00:10.890Z,980.42
2017-10-18T06:01:10.969Z,980.44
2017-10-18T06:02:10.980Z,980.45
2017-10-18T06:03:11.013Z,980.42
2017-10-18T06:04:11.038Z,980.49
2017-10-18T06:05:11.099Z,980.46
2017-10-18T06:06:11.117Z,980.51
2017-10-18T06:07:11.157Z,980.52
2017-10-18T06:08:11.165Z,980.48
2017-10-18T06:09:11.237Z,980.48
2017-10-18T06:10:11.252Z,980.50
2017-10-18T06:11:11.264Z,980.52
2017-10-18T06:12:11.298Z,980.56
2017-10-18T06:13:11.339Z,980.53
2017-10-18T06:14:11.371Z,980.50
2017-10-18T06:15:11.466Z,980.49
2017-10-18T06:16:11.439Z,980.47
2017-10-18T06:17:11.480Z,980.51
2017-10-18T06:18:11.520Z,980.48
2017-10-18T06:19:11.551Z,980.48
2017-10-18T06:20:11.592Z,980.44
2017-10-18T06:21:11.627Z,980.49
2017-10-18T06:22:11.652Z,980.44
2017-10-18T06:23:11.683Z,980.46
2017-10-18T06:24:11.743Z,980.46
2017-10-18T06:25:11.756Z,980.44
2017-10-18T06:26:11.785Z,980.46
2017-10-18T06:27:11.845Z,980.48
2017-10-18T06:28:11.860Z,980.44
2017-10-18T06:29:11.892Z,980.45
2017-10-18T06:30:11.923Z,980.48
2017-10-18T06:31:11.957Z,980.46
2017-10-18T06:32:11.994Z,980.42
2017-10-18T06:33:12.028Z,980.43
2017-10-18T06:34:12.061Z,980.47
2017-10-18T06:35:12.104Z,980.47
2017-10-18T06:36:12.131Z,980.46
2017-10-18T06:37:12.174Z,980.47
2017-10-18T06:38:12.195Z,980.51
2017-10-18T06:39:12.308Z,980.51
2017-10-18T06:40:13.806Z,980.52
2017-10-18T06:41:12.314Z,980.56
2017-10-18T06:42:12.355Z,980.57
2017-10-18T06:43:12.386Z,980.61
2017-10-18T06:44:12.593Z,980.62
2017-10-18T06:45:12.517Z,980.57
2017-10-18T06:46:12.651Z,980.60
2017-10-18T06:47:12.520Z,980.59
2017-10-18T06:48:12.543Z,980.62
2017-10-18T06:49:12.581Z,980.62
2017-10-18T06:50:12.612Z,980.62
2017-10-18T06:51:12.649Z,980.62
2017-10-18T06:52:12.687Z,980.57
2017-10-18T06:53:12.726Z,980.59
2017-10-18T06:54:12.767Z,980.58
2017-10-18T06:55:12.794Z,980.56
2017-10-18T06:56:12.828Z,980.55
2017-10-18T06:57:12.884Z,980.48
2017-10-18T06:58:12.911Z,980.53
2017-10-18T06:59:12.990Z,980.53
2017-10-18T07:00:12.963Z,980.48
2017-10-18T07:01:13.011Z,980.53
2017-10-18T07:02:13.036Z,980.49
2017-10-18T07:03:13.093Z,980.51
2017-10-18T07:04:13.110Z,980.50
2017-10-18T07:05:13.140Z,980.46
2017-10-18T07:06:13.175Z,980.45
2017-10-18T07:07:13.211Z,980.47
2017-10-18T07:08:13.258Z,980.50
2017-10-18T07:09:13.284Z,980.50
2017-10-18T07:10:13.333Z,980.49
2017-10-18T07:11:13.359Z,980.49
2017-10-18T07:12:13.387Z,980.50
2017-10-18T07:13:13.426Z,980.52
2017-10-18T07:14:13.537Z,980.56
2017-10-18T07:15:13.507Z,980.53
2017-10-18T07:16:13.530Z,980.50
2017-10-18T07:17:13.570Z,980.45
2017-10-18T07:18:13.642Z,980.50
2017-10-18T07:19:13.639Z,980.46
2017-10-18T07:20:13.672Z,980.43
2017-10-18T07:21:13.708Z,980.44
2017-10-18T07:22:13.753Z,980.46
2017-10-18T07:23:13.779Z,980.45
2017-10-18T07:24:13.831Z,980.40
2017-10-18T07:25:13.850Z,980.42
2017-10-18T07:26:13.891Z,980.42
2017-10-18T07:27:13.925Z,980.42
2017-10-18T07:28:13.961Z,980.45
2017-10-18T07:29:13.994Z,980.43
2017-10-18T07:30:14.032Z,980.39
2017-10-18T07:31:14.107Z,980.39
2017-10-18T07:32:14.100Z,980.39
2017-10-18T07:33:14.142Z,980.38
2017-10-18T07:34:14.190Z,980.35
2017-10-18T07:35:14.208Z,980.34
2017-10-18T07:36:14.250Z,980.36
2017-10-18T07:37:14.284Z,980.35
2017-10-18T07:38:14.319Z,980.38
2017-10-18T07:39:14.351Z,980.38
2017-10-18T07:40:17.531Z,980.36
2017-10-18T07:41:14.428Z,980.39
2017-10-18T07:42:14.462Z,980.36
2017-10-18T07:43:14.533Z,980.34
2017-10-18T07:44:14.532Z,980.35
2017-10-18T07:45:14.569Z,980.35
2017-10-18T07:46:14.617Z,980.34
2017-10-18T07:47:14.643Z,980.36
2017-10-18T07:48:15.344Z,980.31
2017-10-18T07:49:14.714Z,980.35
2017-10-18T07:50:14.750Z,980.34
2017-10-18T07:51:14.791Z,980.36
2017-10-18T07:52:14.821Z,980.33
2017-10-18T07:53:14.872Z,980.34
2017-10-18T07:54:14.906Z,980.32
2017-10-18T07:55:14.959Z,980.33
2017-10-18T07:56:14.966Z,980.35
2017-10-18T07:57:15.010Z,980.33
2017-10-18T07:58:15.042Z,980.37
2017-10-18T07:59:15.075Z,980.36
2017-10-18T08:00:15.124Z,980.35
2017-10-18T08:01:15.152Z,980.35
2017-10-18T08:02:15.233Z,980.30
2017-10-18T08:03:15.232Z,980.30
2017-10-18T08:04:15.323Z,980.32
2017-10-18T08:05:15.317Z,980.37
2017-10-18T08:06:15.337Z,980.28
2017-10-18T08:07:15.415Z,980.28
2017-10-18T08:08:15.545Z,980.29
2017-10-18T08:09:15.508Z,980.26
2017-10-18T08:10:15.617Z,980.27
2017-10-18T08:11:15.618Z,980.24
2017-10-18T08:12:15.614Z,980.29
2017-10-18T08:13:15.586Z,980.26
2017-10-18T08:14:15.627Z,980.27
2017-10-18T08:15:15.664Z,980.30
2017-10-18T08:16:15.699Z,980.28
2017-10-18T08:17:15.763Z,980.28
2017-10-18T08:18:15.777Z,980.23
2017-10-18T08:19:15.810Z,980.22
2017-10-18T08:20:15.848Z,980.22
2017-10-18T08:21:15.883Z,980.24
2017-10-18T08:22:15.921Z,980.22
2017-10-18T08:23:15.957Z,980.21
2017-10-18T08:24:15.997Z,980.17
2017-10-18T08:25:16.042Z,980.21
2017-10-18T08:26:16.070Z,980.17
2017-10-18T08:27:16.109Z,980.21
2017-10-18T08:28:16.140Z,980.22
2017-10-18T08:29:16.190Z,980.23
2017-10-18T08:30:16.252Z,980.21
2017-10-18T08:31:16.249Z,980.22
2017-10-18T08:32:16.288Z,980.16
2017-10-18T08:33:16.330Z,980.18
2017-10-18T08:34:16.369Z,980.24
2017-10-18T08:35:16.405Z,980.17
2017-10-18T08:36:16.442Z,980.20
2017-10-18T08:37:16.474Z,980.15
2017-10-18T08:38:16.516Z,980.14
2017-10-18T08:39:16.546Z,980.20
2017-10-18T08:40:16.589Z,980.21
2017-10-18T08:41:16.621Z,980.21
2017-10-18T08:42:16.661Z,980.21
2017-10-18T08:43:16.699Z,980.24
2017-10-18T08:44:16.732Z,980.26
2017-10-18T08:45:16.822Z,980.18
2017-10-18T08:46:16.811Z,980.18
2017-10-18T08:47:16.844Z,980.14
2017-10-18T08:48:16.881Z,980.16
2017-10-18T08:49:16.924Z,980.16
2017-10-18T08:50:16.959Z,980.16
2017-10-18T08:51:16.999Z,980.15
2017-10-18T08:52:17.032Z,980.10
2017-10-18T08:53:17.074Z,980.06
2017-10-18T08:54:17.152Z,980.10
2017-10-18T08:55:17.208Z,980.06
2017-10-18T08:56:17.230Z,980.08
2017-10-18T08:57:17.230Z,980.07
2017-10-18T08:58:17.258Z,980.08
2017-10-18T08:59:17.312Z,980.09
2017-10-18T09:00:17.335Z,980.08
2017-10-18T09:01:17.372Z,980.09
2017-10-18T09:02:17.411Z,980.11
2017-10-18T09:03:17.608Z,980.13
2017-10-18T09:04:17.493Z,980.10
2017-10-18T09:05:17.527Z,980.15
2017-10-18T09:06:17.565Z,980.14
2017-10-18T09:07:17.619Z,980.12
2017-10-18T09:08:17.658Z,980.09
2017-10-18T09:09:17.693Z,980.12
2017-10-18T09:10:17.713Z,980.14
2017-10-18T09:11:18.042Z,980.06
2017-10-18T09:12:17.792Z,980.11
2017-10-18T09:13:17.827Z,980.08
2017-10-18T09:14:17.867Z,980.09
2017-10-18T09:15:17.907Z,980.08
2017-10-18T09:16:17.942Z,980.09
2017-10-18T09:17:17.983Z,980.07
2017-10-18T09:18:18.027Z,980.08
2017-10-18T09:19:18.061Z,980.06
2017-10-18T09:20:18.169Z,980.08
2017-10-18T09:21:18.132Z,980.09
2017-10-18T09:22:18.327Z,980.11
2017-10-18T09:23:18.211Z,980.14
2017-10-18T09:24:18.244Z,980.14
2017-10-18T09:25:18.285Z,980.19
2017-10-18T09:26:18.323Z,980.14
2017-10-18T09:27:18.364Z,980.17
2017-10-18T09:28:18.468Z,980.16
2017-10-18T09:29:18.440Z,980.14
2017-10-18T09:30:18.482Z,980.12
2017-10-18T09:31:18.524Z,980.12
2017-10-18T09:32:18.644Z,980.09
2017-10-18T09:33:18.699Z,980.08
2017-10-18T09:34:18.631Z,980.11
2017-10-18T09:35:18.709Z,980.08
2017-10-18T09:36:18.710Z,980.11
2017-10-18T09:37:18.749Z,980.09
2017-10-18T09:38:18.788Z,980.09
2017-10-18T09:39:18.825Z,980.07
2017-10-18T09:40:18.870Z,980.02
2017-10-18T09:41:18.906Z,980.06
2017-10-18T09:42:18.938Z,980.03
2017-10-18T09:43:18.981Z,980.05
2017-10-18T09:44:19.016Z,980.03
2017-10-18T09:45:19.067Z,980.06
2017-10-18T09:46:19.094Z,980.07
2017-10-18T09:47:19.131Z,980.09
2017-10-18T09:48:19.168Z,980.04
2017-10-18T09:49:19.211Z,980.05
2017-10-18T09:50:19.248Z,979.99
2017-10-18T09:51:19.329Z,979.98
2017-10-18T09:52:19.327Z,980.00
2017-10-18T09:53:19.432Z,979.97
2017-10-18T09:54:19.416Z,979.96
2017-10-18T09:55:19.482Z,979.96
2017-10-18T09:56:19.478Z,979.96
2017-10-18T09:57:19.520Z,979.99
2017-10-18T09:58:19.569Z,979.99
2017-10-18T09:59:19.599Z,980.00
2017-10-18T10:00:19.642Z,980.00
2017-10-18T10:01:19.681Z,979.97
2017-10-18T10:02:19.719Z,979.99
2017-10-18T10:03:19.750Z,979.96
2017-10-18T10:04:19.792Z,979.95
2017-10-18T10:05:19.841Z,979.95
2017-10-18T10:06:19.886Z,979.96
2017-10-18T10:07:19.915Z,979.95
2017-10-18T10:08:19.955Z,979.95
2017-10-18T10:09:20.118Z,979.96
2017-10-18T10:10:20.030Z,979.92
2017-10-18T10:11:20.154Z,979.92
2017-10-18T10:12:20.110Z,979.92
2017-10-18T10:13:20.161Z,979.91
2017-10-18T10:14:20.183Z,979.89
2017-10-18T10:15:20.222Z,979.86
2017-10-18T10:16:20.257Z,979.85
2017-10-18T10:17:20.345Z,979.85
2017-10-18T10:18:20.340Z,979.84
2017-10-18T10:19:20.379Z,979.86
2017-10-18T10:20:20.504Z,979.85
2017-10-18T10:21:20.468Z,979.81
2017-10-18T10:22:20.515Z,979.84
2017-10-18T10:23:20.567Z,979.89
2017-10-18T10:24:20.662Z,979.79
2017-10-18T10:25:20.612Z,979.80
2017-10-18T10:26:20.682Z,979.76
2017-10-18T10:27:20.695Z,979.77
2017-10-18T10:28:20.728Z,979.77
2017-10-18T10:29:20.771Z,979.78
2017-10-18T10:30:20.838Z,979.77
2017-10-18T10:31:20.881Z,979.78
2017-10-18T10:32:20.934Z,979.72
2017-10-18T10:33:20.925Z,979.75
2017-10-18T10:34:20.964Z,979.69
2017-10-18T10:35:21.025Z,979.70
2017-10-18T10:36:21.041Z,979.69
2017-10-18T10:37:21.082Z,979.64
2017-10-18T10:38:21.120Z,979.62
2017-10-18T10:39:21.166Z,979.61
2017-10-18T10:40:21.205Z,979.63
2017-10-18T10:41:21.239Z,979.63
2017-10-18T10:42:21.280Z,979.58
2017-10-18T10:43:21.319Z,979.59
2017-10-18T10:44:21.359Z,979.61
2017-10-18T10:45:21.398Z,979.59
2017-10-18T10:46:21.445Z,979.61
2017-10-18T10:47:21.478Z,979.62
2017-10-18T10:48:21.516Z,979.60
2017-10-18T10:49:21.560Z,979.55
2017-10-18T10:50:21.599Z,979.57
2017-10-18T10:51:21.640Z,979.62
2017-10-18T10:52:21.680Z,979.63
2017-10-18T10:53:21.721Z,979.55
2017-10-18T10:54:21.764Z,979.59
2017-10-18T10:55:21.838Z,979.57
2017-10-18T10:56:21.843Z,979.50
2017-10-18T10:57:21.880Z,979.50
2017-10-18T10:58:21.934Z,979.52
2017-10-18T10:59:21.958Z,979.47
2017-10-18T11:00:21.999Z,979.44
2017-10-18T11:01:22.045Z,979.44
2017-10-18T11:02:22.087Z,979.44
2017-10-18T11:03:22.133Z,979.44
2017-10-18T11:04:22.158Z,979.46
2017-10-18T11:05:22.210Z,979.43
2017-10-18T11:06:22.242Z,979.43
2017-10-18T11:07:22.312Z,979.44
2017-10-18T11:08:22.320Z,979.42
2017-10-18T11:09:22.367Z,979.38
2017-10-18T11:10:22.415Z,979.40
2017-10-18T11:11:22.453Z,979.38
2017-10-18T11:12:22.490Z,979.40
2017-10-18T11:13:22.576Z,979.42
2017-10-18T11:14:22.727Z,979.39
2017-10-18T11:15:22.610Z,979.38
2017-10-18T11:16:22.645Z,979.34
2017-10-18T11:17:22.686Z,979.35
2017-10-18T11:18:22.746Z,979.36
2017-10-18T11:19:22.767Z,979.35
2017-10-18T11:20:22.820Z,979.32
2017-10-18T11:21:22.844Z,979.31
2017-10-18T11:22:22.895Z,979.30
2017-10-18T11:23:22.930Z,979.33
2017-10-18T11:24:22.968Z,979.30
2017-10-18T11:25:23.047Z,979.31
2017-10-18T11:26:23.052Z,979.28
2017-10-18T11:27:23.090Z,979.30
2017-10-18T11:28:23.127Z,979.27
2017-10-18T11:29:23.167Z,979.23
2017-10-18T11:30:23.209Z,979.24
2017-10-18T11:31:23.253Z,979.24
2017-10-18T11:32:23.293Z,979.22
2017-10-18T11:33:23.350Z,979.20
2017-10-18T11:34:23.372Z,979.20
2017-10-18T11:35:23.415Z,979.17
2017-10-18T11:36:23.669Z,979.13
2017-10-18T11:37:24.380Z,979.16
2017-10-18T11:38:24.477Z,979.13
2017-10-18T11:39:23.667Z,979.14
2017-10-18T11:40:24.493Z,979.13
2017-10-18T11:41:24.785Z,979.09
2017-10-18T11:42:23.701Z,979.02
2017-10-18T11:43:23.738Z,979.04
2017-10-18T11:44:23.802Z,978.99
2017-10-18T11:45:23.861Z,978.99
2017-10-18T11:46:24.252Z,978.99
2017-10-18T11:47:23.902Z,979.00
2017-10-18T11:48:23.953Z,979.01
2017-10-18T11:49:23.987Z,978.97
2017-10-18T11:50:24.046Z,978.98
2017-10-18T11:51:24.251Z,979.00
2017-10-18T11:52:24.151Z,978.94
2017-10-18T11:53:24.150Z,978.94
2017-10-18T11:54:24.193Z,978.95
2017-10-18T11:55:24.239Z,978.89
2017-10-18T11:56:24.278Z,978.90
2017-10-18T11:57:24.320Z,978.87
2017-10-18T11:58:24.358Z,978.86
2017-10-18T11:59:24.476Z,978.81
2017-10-18T12:00:24.701Z,978.81
2017-10-18T12:01:24.483Z,978.79
2017-10-18T12:02:24.550Z,978.79
2017-10-18T12:03:24.566Z,978.75
2017-10-18T12:04:24.608Z,978.77
2017-10-18T12:05:24.647Z,978.75
2017-10-18T12:06:24.691Z,978.76
2017-10-18T12:07:24.757Z,978.75
2017-10-18T12:08:24.800Z,978.73
2017-10-18T12:09:24.824Z,978.74
2017-10-18T12:10:24.862Z,978.71
2017-10-18T12:11:24.905Z,978.71
2017-10-18T12:12:24.939Z,978.72
2017-10-18T12:13:24.982Z,978.72
2017-10-18T12:14:25.030Z,978.71
2017-10-18T12:15:25.102Z,978.69
2017-10-18T12:16:25.107Z,978.74
2017-10-18T12:17:25.149Z,978.68
2017-10-18T12:18:25.245Z,978.67
2017-10-18T12:19:25.231Z,978.67
2017-10-18T12:20:25.324Z,978.62
2017-10-18T12:21:25.316Z,978.69
2017-10-18T12:22:25.357Z,978.63
2017-10-18T12:23:25.423Z,978.65
2017-10-18T12:24:25.442Z,978.63
2017-10-18T12:25:25.484Z,978.66
2017-10-18T12:26:25.524Z,978.56
2017-10-18T12:27:25.568Z,978.60
2017-10-18T12:28:25.609Z,978.61
2017-10-18T12:29:25.651Z,978.58